createdAt,value
2022-12-24T00:01:32.434Z,1.87
2022-12-24T00:04:08.585Z,1.53
2022-12-24T00:06:38.268Z,2.03
2022-12-24T00:09:10.294Z,2.70
2022-12-24T00:11:37.327Z,2.00
2022-12-24T00:14:10.287Z,2.17
2022-12-24T00:16:37.431Z,2.53
2022-12-24T00:19:04.662Z,1.77
2022-12-24T00:21:31.826Z,2.77
2022-12-24T00:24:03.942Z,2.80
2022-12-24T00:26:32.534Z,2.20
2022-12-24T00:29:00.000Z,2.30
2022-12-24T00:31:27.366Z,1.50
2022-12-24T00:33:54.608Z,1.93
2022-12-24T00:36:21.731Z,2.17
2022-12-24T00:38:52.203Z,2.30
2022-12-24T00:41:25.704Z,2.43
2022-12-24T00:43:56.173Z,2.17
2022-12-24T00:46:24.080Z,2.67
2022-12-24T00:48:51.332Z,2.30
2022-12-24T00:51:20.050Z,2.00
2022-12-24T00:53:50.210Z,2.40
2022-12-24T00:56:17.985Z,2.80
2022-12-24T00:58:58.655Z,2.40
2022-12-24T01:01:29.472Z,3.17
2022-12-24T01:04:16.768Z,1.70
2022-12-24T01:06:44.647Z,2.57
2022-12-24T01:09:12.094Z,2.80
2022-12-24T01:11:39.399Z,3.00
2022-12-24T01:14:07.980Z,1.80
2022-12-24T01:16:37.312Z,2.30
2022-12-24T01:19:07.389Z,2.27
2022-12-24T01:21:34.489Z,2.40
2022-12-24T01:24:01.649Z,2.30
2022-12-24T01:26:31.600Z,1.80
2022-12-24T01:28:59.536Z,1.87
2022-12-24T01:31:27.996Z,2.47
2022-12-24T01:34:01.313Z,1.80
2022-12-24T01:36:28.607Z,2.57
2022-12-24T01:38:59.008Z,2.20
2022-12-24T01:41:47.918Z,2.60
2022-12-24T01:44:21.528Z,2.17
2022-12-24T01:46:56.785Z,2.23
2022-12-24T01:49:24.613Z,2.77
2022-12-24T01:51:57.275Z,2.07
2022-12-24T01:54:29.813Z,1.77
2022-12-24T01:57:11.461Z,2.33
2022-12-24T01:59:42.655Z,1.90
2022-12-24T02:02:14.450Z,3.27
2022-12-24T02:04:47.952Z,2.67
2022-12-24T02:07:18.479Z,2.67
2022-12-24T02:09:45.715Z,2.13
2022-12-24T02:12:13.030Z,2.40
2022-12-24T02:14:43.362Z,2.50
2022-12-24T02:17:25.668Z,2.30
2022-12-24T02:20:57.687Z,2.47
2022-12-24T02:24:13.659Z,3.23
2022-12-24T02:27:06.826Z,2.77
2022-12-24T02:30:09.455Z,2.20
2022-12-24T02:33:09.092Z,2.20
2022-12-24T02:35:48.800Z,2.23
2022-12-24T02:38:24.273Z,2.30
2022-12-24T02:40:59.223Z,2.90
2022-12-24T02:43:32.875Z,3.27
2022-12-24T02:46:09.442Z,2.47
2022-12-24T02:48:38.669Z,2.17
2022-12-24T02:51:12.644Z,2.50
2022-12-24T02:53:43.604Z,2.43
2022-12-24T02:56:57.616Z,2.63
2022-12-24T03:00:00.384Z,1.97
2022-12-24T03:02:52.141Z,2.00
2022-12-24T03:05:29.350Z,2.20
2022-12-24T03:08:04.008Z,2.23
2022-12-24T03:10:43.716Z,2.27
2022-12-24T03:13:18.914Z,2.00
2022-12-24T03:15:56.892Z,2.40
2022-12-24T03:18:28.077Z,2.57
2022-12-24T03:21:04.089Z,2.03
2022-12-24T03:23:31.334Z,2.63
2022-12-24T03:26:09.183Z,2.87
2022-12-24T03:28:43.713Z,2.57
2022-12-24T03:31:11.962Z,2.33
2022-12-24T03:33:41.223Z,2.40
2022-12-24T03:36:12.709Z,1.97
2022-12-24T03:38:45.957Z,2.60
2022-12-24T03:41:25.420Z,2.07
2022-12-24T03:43:52.492Z,2.30
2022-12-24T03:46:19.569Z,1.90
2022-12-24T03:48:54.271Z,2.27
2022-12-24T03:51:23.809Z,4.33
2022-12-24T03:53:53.268Z,2.23
2022-12-24T03:56:21.223Z,2.50
2022-12-24T03:58:51.442Z,2.13
2022-12-24T04:01:18.917Z,2.67
2022-12-24T04:03:46.266Z,2.57
2022-12-24T04:06:18.332Z,1.53
2022-12-24T04:08:45.515Z,2.30
2022-12-24T04:11:15.325Z,1.87
2022-12-24T04:13:45.631Z,2.00
2022-12-24T04:16:23.088Z,1.80
2022-12-24T04:18:51.697Z,1.70
2022-12-24T04:21:20.715Z,2.37
2022-12-24T04:23:48.122Z,2.07
2022-12-24T04:26:17.624Z,2.70
2022-12-24T04:28:44.911Z,2.33
2022-12-24T04:31:14.438Z,2.50
2022-12-24T04:33:42.447Z,1.67
2022-12-24T04:36:16.127Z,2.13
2022-12-24T04:38:46.149Z,2.97
2022-12-24T04:41:23.005Z,2.30
2022-12-24T04:43:56.072Z,1.97
2022-12-24T04:46:26.934Z,2.70
2022-12-24T04:48:59.563Z,2.73
2022-12-24T04:51:28.218Z,3.70
2022-12-24T04:53:57.190Z,2.90
2022-12-24T04:56:27.523Z,2.40
2022-12-24T04:58:58.124Z,2.40
2022-12-24T05:01:27.812Z,2.00
2022-12-24T05:03:58.809Z,2.40
2022-12-24T05:06:30.515Z,2.13
2022-12-24T05:08:59.667Z,2.73
2022-12-24T05:11:32.816Z,2.20
2022-12-24T05:14:03.439Z,2.13
2022-12-24T05:16:33.653Z,2.33
2022-12-24T05:19:05.799Z,2.40
2022-12-24T05:21:35.825Z,8.17
2022-12-24T05:24:26.026Z,4.00
2022-12-24T05:26:55.686Z,3.20
2022-12-24T05:29:23.370Z,2.40
2022-12-24T05:31:50.908Z,2.07
2022-12-24T05:34:17.937Z,2.70
2022-12-24T05:36:47.650Z,3.00
2022-12-24T05:39:20.371Z,2.80
2022-12-24T05:41:47.705Z,2.03
2022-12-24T05:44:16.299Z,2.60
2022-12-24T05:46:46.609Z,1.70
2022-12-24T05:49:14.548Z,2.53
2022-12-24T05:51:41.861Z,2.40
2022-12-24T05:54:10.070Z,6.00
2022-12-24T05:56:39.222Z,3.20
2022-12-24T05:59:09.092Z,4.33
2022-12-24T06:01:36.546Z,2.90
2022-12-24T06:04:04.430Z,2.43
2022-12-24T06:06:34.263Z,2.60
2022-12-24T06:09:07.533Z,4.03
2022-12-24T06:11:35.542Z,2.60
2022-12-24T06:14:03.916Z,2.37
2022-12-24T06:16:34.337Z,2.00
2022-12-24T06:19:01.501Z,6.40
2022-12-24T06:21:28.619Z,2.57
2022-12-24T06:24:01.888Z,3.20
2022-12-24T06:26:28.842Z,2.93
2022-12-24T06:28:58.975Z,2.27
2022-12-24T06:31:30.104Z,3.67
2022-12-24T06:33:57.358Z,2.83
2022-12-24T06:36:39.406Z,2.30
2022-12-24T06:39:09.540Z,2.37
2022-12-24T06:41:36.672Z,2.93
2022-12-24T06:44:04.127Z,2.60
2022-12-24T06:46:32.639Z,2.77
2022-12-24T06:49:02.917Z,2.53
2022-12-24T06:51:30.002Z,2.13
2022-12-24T06:53:57.595Z,2.13
2022-12-24T06:56:24.695Z,2.50
2022-12-24T06:58:52.005Z,3.23
2022-12-24T07:01:20.993Z,3.33
2022-12-24T07:03:50.223Z,2.77
2022-12-24T07:06:21.844Z,3.10
2022-12-24T07:08:49.334Z,2.47
2022-12-24T07:11:19.693Z,2.90
2022-12-24T07:13:47.232Z,2.83
2022-12-24T07:16:17.998Z,2.73
2022-12-24T07:18:45.574Z,2.83
2022-12-24T07:21:14.350Z,2.60
2022-12-24T07:23:41.417Z,2.70
2022-12-24T07:26:11.768Z,2.37
2022-12-24T07:28:40.406Z,2.97
2022-12-24T07:31:07.691Z,2.77
2022-12-24T07:33:34.834Z,2.60
2022-12-24T07:36:05.324Z,2.50
2022-12-24T07:38:34.930Z,2.50
2022-12-24T07:41:02.454Z,3.13
2022-12-24T07:43:29.804Z,2.80
2022-12-24T07:45:58.263Z,2.70
2022-12-24T07:48:26.176Z,2.77
2022-12-24T07:50:53.545Z,2.70
2022-12-24T07:53:20.794Z,3.00
2022-12-24T07:55:49.123Z,2.77
2022-12-24T07:58:16.384Z,3.20
2022-12-24T08:00:43.613Z,3.10
2022-12-24T08:03:17.677Z,2.93
2022-12-24T08:05:45.648Z,3.57
2022-12-24T08:08:13.154Z,3.07
2022-12-24T08:10:40.566Z,3.07
2022-12-24T08:13:10.536Z,2.60
2022-12-24T08:15:45.295Z,3.10
2022-12-24T08:18:20.470Z,3.93
2022-12-24T08:20:47.825Z,3.20
2022-12-24T08:23:17.691Z,3.20
2022-12-24T08:25:47.240Z,3.63
2022-12-24T08:28:19.544Z,3.40
2022-12-24T08:30:50.659Z,3.30
2022-12-24T08:33:17.845Z,2.83
2022-12-24T08:35:48.943Z,3.30
2022-12-24T08:38:16.661Z,4.30
2022-12-24T08:40:44.107Z,4.50
2022-12-24T08:43:11.292Z,4.03
2022-12-24T08:45:47.152Z,3.40
2022-12-24T08:48:14.308Z,3.93
2022-12-24T08:50:42.601Z,3.97
2022-12-24T08:53:11.306Z,2.97
2022-12-24T08:55:38.371Z,3.33
2022-12-24T08:58:06.916Z,3.77
2022-12-24T09:00:33.971Z,4.30
2022-12-24T09:03:02.589Z,3.00
2022-12-24T09:05:32.061Z,2.80
2022-12-24T09:07:59.324Z,3.57
2022-12-24T09:10:26.763Z,3.00
2022-12-24T09:12:55.009Z,3.90
2022-12-24T09:15:22.326Z,4.20
2022-12-24T09:17:49.487Z,3.30
2022-12-24T09:20:18.302Z,3.17
2022-12-24T09:22:45.316Z,3.23
2022-12-24T09:25:12.769Z,3.57
2022-12-24T09:27:39.787Z,3.00
2022-12-24T09:30:08.884Z,3.37
2022-12-24T09:32:36.086Z,3.37
2022-12-24T09:35:04.128Z,3.80
2022-12-24T09:37:32.470Z,3.57
2022-12-24T09:39:59.761Z,3.30
2022-12-24T09:42:42.068Z,4.40
2022-12-24T09:45:20.152Z,3.50
2022-12-24T09:47:49.722Z,3.03
2022-12-24T09:50:50.146Z,3.30
2022-12-24T09:53:25.415Z,3.00
2022-12-24T09:55:58.375Z,3.63
2022-12-24T09:58:39.045Z,3.03
2022-12-24T10:01:16.263Z,3.00
2022-12-24T10:03:47.604Z,3.30
2022-12-24T10:06:27.002Z,2.70
2022-12-24T10:09:16.188Z,2.53
2022-12-24T10:12:01.400Z,2.60
2022-12-24T10:14:57.374Z,2.80
2022-12-24T10:17:47.988Z,3.13
2022-12-24T10:20:34.939Z,3.33
2022-12-24T10:23:23.795Z,2.60
2022-12-24T10:26:09.570Z,2.60
2022-12-24T10:28:48.881Z,3.30
2022-12-24T10:31:23.520Z,3.63
2022-12-24T10:34:00.041Z,2.70
2022-12-24T10:36:40.766Z,2.80
2022-12-24T10:39:17.724Z,3.03
2022-12-24T10:41:52.050Z,3.33
2022-12-24T10:44:35.871Z,3.17
2022-12-24T10:47:04.749Z,2.30
2022-12-24T10:49:47.632Z,2.30
2022-12-24T10:52:18.453Z,2.73
2022-12-24T10:55:11.048Z,2.80
2022-12-24T10:57:43.862Z,3.03
2022-12-24T11:00:21.713Z,3.20
2022-12-24T11:02:49.929Z,2.63
2022-12-24T11:05:32.215Z,2.73
2022-12-24T11:08:03.721Z,3.30
2022-12-24T11:10:31.931Z,2.97
2022-12-24T11:13:35.795Z,3.27
2022-12-24T11:16:04.556Z,3.30
2022-12-24T11:18:34.180Z,3.73
2022-12-24T11:21:01.678Z,3.03
2022-12-24T11:23:29.643Z,3.73
2022-12-24T11:25:58.727Z,3.30
2022-12-24T11:28:33.465Z,4.33
2022-12-24T11:31:07.119Z,4.40
2022-12-24T11:33:52.856Z,3.37
2022-12-24T11:36:26.738Z,3.43
2022-12-24T11:38:56.798Z,2.80
2022-12-24T11:41:24.662Z,3.13
2022-12-24T11:44:04.636Z,3.73
2022-12-24T11:46:40.125Z,3.50
2022-12-24T11:49:21.781Z,3.50
2022-12-24T11:52:23.042Z,3.07
2022-12-24T11:55:24.971Z,3.47
2022-12-24T11:57:58.963Z,3.90
2022-12-24T12:00:28.662Z,3.23
2022-12-24T12:03:02.865Z,2.93
2022-12-24T12:05:35.143Z,2.70
2022-12-24T12:08:18.995Z,2.77
2022-12-24T12:10:53.388Z,3.30
2022-12-24T12:13:27.557Z,3.00
2022-12-24T12:16:11.205Z,2.77
2022-12-24T12:18:49.069Z,2.63
2022-12-24T12:21:20.253Z,3.50
2022-12-24T12:23:52.869Z,3.37
2022-12-24T12:26:24.521Z,4.37
2022-12-24T12:28:59.055Z,2.40
2022-12-24T12:31:34.955Z,3.00
2022-12-24T12:34:07.475Z,3.37
2022-12-24T12:36:40.568Z,3.10
2022-12-24T12:39:10.642Z,3.07
2022-12-24T12:41:52.774Z,2.70
2022-12-24T12:44:47.084Z,3.23
2022-12-24T12:47:40.659Z,2.87
2022-12-24T12:50:14.898Z,3.30
2022-12-24T12:52:59.542Z,2.73
2022-12-24T12:55:40.999Z,3.03
2022-12-24T12:58:15.763Z,3.10
2022-12-24T13:00:46.278Z,3.23
2022-12-24T13:03:55.954Z,3.00
2022-12-24T13:06:52.293Z,3.07
2022-12-24T13:09:52.825Z,3.60
2022-12-24T13:12:49.127Z,2.73
2022-12-24T13:15:56.655Z,2.90
2022-12-24T13:18:58.989Z,4.30
2022-12-24T13:21:29.368Z,3.37
2022-12-24T13:24:07.135Z,5.33
2022-12-24T13:26:34.547Z,3.53
2022-12-24T13:29:41.099Z,2.83
2022-12-24T13:32:54.431Z,3.17
2022-12-24T13:35:37.969Z,2.67
2022-12-24T13:38:49.296Z,3.40
2022-12-24T13:41:56.651Z,2.80
2022-12-24T13:44:33.228Z,3.03
2022-12-24T13:47:31.599Z,2.97
2022-12-24T13:50:22.093Z,2.63
2022-12-24T13:52:53.417Z,3.40
2022-12-24T13:55:20.870Z,4.50
2022-12-24T13:57:57.668Z,2.57
2022-12-24T14:00:33.883Z,3.37
2022-12-24T14:03:06.731Z,3.10
2022-12-24T14:05:37.981Z,3.20
2022-12-24T14:08:11.617Z,2.93
2022-12-24T14:10:43.241Z,3.10
2022-12-24T14:13:56.808Z,4.03
2022-12-24T14:16:30.263Z,2.97
2022-12-24T14:19:04.843Z,3.27
2022-12-24T14:21:35.808Z,3.13
2022-12-24T14:24:13.965Z,2.90
2022-12-24T14:26:47.054Z,3.70
2022-12-24T14:29:24.998Z,3.40
2022-12-24T14:31:53.584Z,3.30
2022-12-24T14:34:21.309Z,3.60
2022-12-24T14:36:51.317Z,4.23
2022-12-24T14:39:26.634Z,3.33
2022-12-24T14:42:12.842Z,5.27
2022-12-24T14:45:06.657Z,3.90
2022-12-24T14:47:43.362Z,3.03
2022-12-24T14:50:58.729Z,4.23
2022-12-24T14:53:49.485Z,4.40
2022-12-24T14:56:20.491Z,4.57
2022-12-24T14:58:48.978Z,3.83
2022-12-24T15:01:23.725Z,3.93
2022-12-24T15:04:02.699Z,3.17
2022-12-24T15:06:33.299Z,3.37
2022-12-24T15:09:00.746Z,4.67
2022-12-24T15:11:29.295Z,3.80
2022-12-24T15:14:00.613Z,3.70
2022-12-24T15:16:31.537Z,4.90
2022-12-24T15:19:02.667Z,4.80
2022-12-24T15:21:37.558Z,4.30
2022-12-24T15:24:08.061Z,4.00
2022-12-24T15:26:37.496Z,4.37
2022-12-24T15:29:24.184Z,7.10
2022-12-24T15:31:55.973Z,3.90
2022-12-24T15:34:29.072Z,3.20
2022-12-24T15:37:07.124Z,3.60
2022-12-24T15:39:34.608Z,4.27
2022-12-24T15:42:22.801Z,4.20
2022-12-24T15:44:59.168Z,4.13
2022-12-24T15:47:30.400Z,3.50
2022-12-24T15:49:57.692Z,3.97
2022-12-24T15:52:26.489Z,4.60
2022-12-24T15:54:58.048Z,4.47
2022-12-24T15:57:32.287Z,4.50
2022-12-24T16:00:01.536Z,4.20
2022-12-24T16:02:40.391Z,3.70
2022-12-24T16:05:34.106Z,3.87
2022-12-24T16:08:10.112Z,3.80
2022-12-24T16:10:43.016Z,4.50
2022-12-24T16:13:19.305Z,4.03
2022-12-24T16:15:52.101Z,4.13
2022-12-24T16:18:27.552Z,4.10
2022-12-24T16:20:56.674Z,5.50
2022-12-24T16:23:26.874Z,4.50
2022-12-24T16:25:54.220Z,3.80
2022-12-24T16:28:23.307Z,3.90
2022-12-24T16:30:50.673Z,3.70
2022-12-24T16:33:20.271Z,5.03
2022-12-24T16:35:47.997Z,5.57
2022-12-24T16:38:16.718Z,6.43
2022-12-24T16:40:44.330Z,5.80
2022-12-24T16:43:32.069Z,6.23
2022-12-24T16:46:06.512Z,5.97
2022-12-24T16:51:25.072Z,8.17
2022-12-24T16:53:58.527Z,6.60
2022-12-24T16:56:26.873Z,6.77
2022-12-24T16:58:53.862Z,8.20
2022-12-24T17:01:28.011Z,8.57
2022-12-24T17:04:01.535Z,6.40
2022-12-24T17:06:35.518Z,5.90
2022-12-24T17:09:06.798Z,7.90
2022-12-24T17:11:36.008Z,8.20
2022-12-24T17:14:08.060Z,4.57
2022-12-24T17:16:40.247Z,3.90
2022-12-24T17:19:08.186Z,4.50
2022-12-24T17:21:41.591Z,5.73
2022-12-24T17:24:08.958Z,4.80
2022-12-24T17:26:37.022Z,4.40
2022-12-24T17:29:05.214Z,4.33
2022-12-24T17:31:33.956Z,6.93
2022-12-24T17:34:02.744Z,5.50
2022-12-24T17:36:29.873Z,9.97
2022-12-24T17:38:57.024Z,7.13
2022-12-24T17:41:24.106Z,4.23
2022-12-24T17:43:51.219Z,4.47
2022-12-24T17:46:24.071Z,6.40
2022-12-24T17:48:52.431Z,9.10
2022-12-24T17:51:22.834Z,6.37
2022-12-24T17:53:51.213Z,9.83
2022-12-24T17:56:18.768Z,9.90
2022-12-24T17:58:46.829Z,8.30
2022-12-24T18:01:17.203Z,9.63
2022-12-24T18:03:44.886Z,6.30
2022-12-24T18:06:14.733Z,11.27
2022-12-24T18:08:47.715Z,8.87
2022-12-24T18:11:18.266Z,9.70
2022-12-24T18:13:48.175Z,6.87
2022-12-24T18:16:21.857Z,6.37
2022-12-24T18:18:50.297Z,8.27
2022-12-24T18:21:24.190Z,7.40
2022-12-24T18:23:55.423Z,6.67
2022-12-24T18:26:23.897Z,7.07
2022-12-24T18:28:53.543Z,7.50
2022-12-24T18:31:21.522Z,6.43
2022-12-24T18:33:53.348Z,7.03
2022-12-24T18:36:21.047Z,8.20
2022-12-24T18:38:48.832Z,6.60
2022-12-24T18:41:20.266Z,7.80
2022-12-24T18:43:48.217Z,6.33
2022-12-24T18:46:18.897Z,5.73
2022-12-24T18:48:46.918Z,6.40
2022-12-24T18:51:14.796Z,6.17
2022-12-24T18:53:42.023Z,6.33
2022-12-24T18:56:13.186Z,8.97
2022-12-24T18:58:45.989Z,7.77
2022-12-24T19:01:18.011Z,7.27
2022-12-24T19:03:45.640Z,6.50
2022-12-24T19:06:12.857Z,6.90
2022-12-24T19:08:57.780Z,5.07
2022-12-24T19:11:28.050Z,4.63
2022-12-24T19:13:58.293Z,5.57
2022-12-24T19:16:26.250Z,5.60
2022-12-24T19:18:57.232Z,5.73
2022-12-24T19:21:24.431Z,5.47
2022-12-24T19:23:52.203Z,6.97
2022-12-24T19:26:20.690Z,4.60
2022-12-24T19:28:48.222Z,4.53
2022-12-24T19:31:21.898Z,4.20
2022-12-24T19:33:52.357Z,5.00
2022-12-24T19:36:24.840Z,4.87
2022-12-24T19:38:51.920Z,4.20
2022-12-24T19:41:24.084Z,4.30
2022-12-24T19:43:53.481Z,4.40
2022-12-24T19:46:25.041Z,5.83
2022-12-24T19:48:55.059Z,4.37
2022-12-24T19:51:33.360Z,4.23
2022-12-24T19:54:06.045Z,3.70
2022-12-24T19:56:34.550Z,4.63
2022-12-24T19:59:02.366Z,4.53
2022-12-24T20:01:34.342Z,4.57
2022-12-24T20:04:03.086Z,4.17
2022-12-24T20:06:33.263Z,4.77
2022-12-24T20:09:01.905Z,4.00
2022-12-24T20:11:29.361Z,4.23
2022-12-24T20:13:57.777Z,4.47
2022-12-24T20:16:26.019Z,4.30
2022-12-24T20:18:56.245Z,4.33
2022-12-24T20:21:24.952Z,4.67
2022-12-24T20:23:53.465Z,4.70
2022-12-24T20:26:25.254Z,5.07
2022-12-24T20:28:53.178Z,6.97
2022-12-24T20:31:27.011Z,5.20
2022-12-24T20:33:56.910Z,5.30
2022-12-24T20:36:25.428Z,5.73
2022-12-24T20:38:53.209Z,5.53
2022-12-24T20:41:22.879Z,4.57
2022-12-24T20:43:50.346Z,4.40
2022-12-24T20:46:18.628Z,5.50
2022-12-24T20:48:48.857Z,5.07
2022-12-24T20:51:24.428Z,8.10
2022-12-24T20:53:54.374Z,6.73
2022-12-24T20:56:22.137Z,9.80
2022-12-24T20:58:49.591Z,12.17
2022-12-24T21:01:20.907Z,11.80
2022-12-24T21:03:48.264Z,20.40
2022-12-24T21:06:17.983Z,15.40
2022-12-24T21:08:45.420Z,14.63
2022-12-24T21:11:30.895Z,11.23
2022-12-24T21:13:58.169Z,9.77
2022-12-24T21:16:25.461Z,12.30
2022-12-24T21:18:52.529Z,12.70
2022-12-24T21:21:20.959Z,12.70
2022-12-24T21:23:51.242Z,9.63
2022-12-24T21:26:18.273Z,11.67
2022-12-24T21:28:45.650Z,6.20
2022-12-24T21:31:14.396Z,6.00
2022-12-24T21:33:41.672Z,6.67
2022-12-24T21:36:10.659Z,7.67
2022-12-24T21:38:44.639Z,5.27
2022-12-24T21:41:17.688Z,5.37
2022-12-24T21:43:46.843Z,5.63
2022-12-24T21:46:17.373Z,5.43
2022-12-24T21:49:05.654Z,4.90
2022-12-24T21:51:35.838Z,5.00
2022-12-24T21:54:23.734Z,4.40
2022-12-24T21:57:10.773Z,6.90
2022-12-24T21:59:37.989Z,5.97
2022-12-24T22:02:05.470Z,5.10
2022-12-24T22:04:34.237Z,5.20
2022-12-24T22:07:19.840Z,5.90
2022-12-24T22:10:06.609Z,4.50
2022-12-24T22:12:35.032Z,4.50
2022-12-24T22:15:04.221Z,6.17
2022-12-24T22:17:31.199Z,6.10
2022-12-24T22:19:58.391Z,6.73
2022-12-24T22:22:26.657Z,7.37
2022-12-24T22:25:01.326Z,5.10
2022-12-24T22:27:28.334Z,5.60
2022-12-24T22:29:58.816Z,4.27
2022-12-24T22:32:28.243Z,4.67
2022-12-24T22:35:02.715Z,5.03
2022-12-24T22:37:37.135Z,7.13
2022-12-24T22:40:08.166Z,4.20
2022-12-24T22:42:41.070Z,6.23
2022-12-24T22:45:10.662Z,4.50
2022-12-24T22:47:37.691Z,4.00
2022-12-24T22:50:06.287Z,4.30
2022-12-24T22:52:36.729Z,4.00
2022-12-24T22:55:07.018Z,5.77
2022-12-24T22:57:34.256Z,5.63
2022-12-24T23:00:01.234Z,3.60
2022-12-24T23:02:31.438Z,4.20
2022-12-24T23:04:58.972Z,3.80
2022-12-24T23:07:26.034Z,3.97
2022-12-24T23:09:53.411Z,3.83
2022-12-24T23:12:41.774Z,4.80
2022-12-24T23:15:10.372Z,5.90
2022-12-24T23:17:37.497Z,5.40
2022-12-24T23:20:06.193Z,4.10
2022-12-24T23:22:33.193Z,3.60
2022-12-24T23:25:00.611Z,3.23
2022-12-24T23:27:29.010Z,3.53
2022-12-24T23:29:56.541Z,4.60
2022-12-24T23:32:23.480Z,4.53
2022-12-24T23:34:50.718Z,3.77
2022-12-24T23:37:17.887Z,3.53
2022-12-24T23:39:45.505Z,2.80
2022-12-24T23:42:12.522Z,4.00
2022-12-24T23:44:41.010Z,2.80
2022-12-24T23:47:10.248Z,2.90
2022-12-24T23:49:37.568Z,3.63
2022-12-24T23:52:04.987Z,3.70
2022-12-24T23:54:31.980Z,3.40
2022-12-24T23:56:58.972Z,3.40
2022-12-24T23:59:26.139Z,3.07
